sensor_id;sensor_type;location;lat;lon;timestamp;pressure;altitude;pressure_sealevel;temperature;humidity
41712;BME280;27399;51.516;13.670;2022-12-18T00:00:20;102132.69;;;-0.75;79.31
41712;BME280;27399;51.516;13.670;2022-12-18T00:02:46;102130.28;;;-0.86;80.41
41712;BME280;27399;51.516;13.670;2022-12-18T00:05:12;102128.56;;;-0.85;80.38
41712;BME280;27399;51.516;13.670;2022-12-18T00:07:37;102120.47;;;-0.88;81.03
41712;BME280;27399;51.516;13.670;2022-12-18T00:10:04;102122.81;;;-0.93;80.19
41712;BME280;27399;51.516;13.670;2022-12-18T00:12:29;102126.81;;;-0.71;80.28
41712;BME280;27399;51.516;13.670;2022-12-18T00:14:55;102126.63;;;-0.61;79.73
41712;BME280;27399;51.516;13.670;2022-12-18T00:17:21;102127.97;;;-0.95;80.49
41712;BME280;27399;51.516;13.670;2022-12-18T00:19:46;102123.41;;;-0.84;80.61
41712;BME280;27399;51.516;13.670;2022-12-18T00:22:12;102125.81;;;-0.73;80.38
41712;BME280;27399;51.516;13.670;2022-12-18T00:24:38;102129.03;;;-0.51;79.52
41712;BME280;27399;51.516;13.670;2022-12-18T00:27:03;102140.94;;;-0.69;79.74
41712;BME280;27399;51.516;13.670;2022-12-18T00:29:29;102132.69;;;-0.89;79.85
41712;BME280;27399;51.516;13.670;2022-12-18T00:31:55;102132.88;;;-1.13;80.34
41712;BME280;27399;51.516;13.670;2022-12-18T00:34:20;102136.94;;;-0.77;79.69
41712;BME280;27399;51.516;13.670;2022-12-18T00:36:47;102140.13;;;-0.68;79.42
41712;BME280;27399;51.516;13.670;2022-12-18T00:39:13;102133.69;;;-0.60;79.10
41712;BME280;27399;51.516;13.670;2022-12-18T00:41:39;102131.47;;;-0.67;79.78
41712;BME280;27399;51.516;13.670;2022-12-18T00:44:23;102133.47;;;-0.63;79.31
41712;BME280;27399;51.516;13.670;2022-12-18T00:46:48;102140.94;;;-0.69;78.71
41712;BME280;27399;51.516;13.670;2022-12-18T00:49:16;102140.72;;;-0.59;78.97
41712;BME280;27399;51.516;13.670;2022-12-18T00:51:43;102120.41;;;-0.76;79.04
41712;BME280;27399;51.516;13.670;2022-12-18T00:54:10;102142.97;;;-0.92;80.00
41712;BME280;27399;51.516;13.670;2022-12-18T00:56:37;102140.94;;;-0.83;79.54
41712;BME280;27399;51.516;13.670;2022-12-18T00:59:03;102148.59;;;-0.72;79.36
41712;BME280;27399;51.516;13.670;2022-12-18T01:01:29;102152.72;;;-0.76;79.33
41712;BME280;27399;51.516;13.670;2022-12-18T01:03:55;102152.81;;;-0.61;79.03
41712;BME280;27399;51.516;13.670;2022-12-18T01:06:20;102165.03;;;-0.75;79.21
41712;BME280;27399;51.516;13.670;2022-12-18T01:08:46;102172.09;;;-0.74;79.14
41712;BME280;27399;51.516;13.670;2022-12-18T01:11:16;102167.97;;;-0.97;79.70
41712;BME280;27399;51.516;13.670;2022-12-18T01:13:42;102179.63;;;-1.05;80.52
41712;BME280;27399;51.516;13.670;2022-12-18T01:16:08;102168.63;;;-1.00;80.09
41712;BME280;27399;51.516;13.670;2022-12-18T01:18:36;102177.09;;;-1.17;80.90
41712;BME280;27399;51.516;13.670;2022-12-18T01:21:08;102167.53;;;-1.03;80.54
41712;BME280;27399;51.516;13.670;2022-12-18T01:23:34;102162.88;;;-1.21;81.00
41712;BME280;27399;51.516;13.670;2022-12-18T01:26:26;102168.78;;;-0.85;79.90
41712;BME280;27399;51.516;13.670;2022-12-18T01:28:56;102168.75;;;-0.98;80.08
41712;BME280;27399;51.516;13.670;2022-12-18T01:31:30;102176.38;;;-1.15;80.78
41712;BME280;27399;51.516;13.670;2022-12-18T01:33:56;102171.91;;;-1.43;81.09
41712;BME280;27399;51.516;13.670;2022-12-18T01:36:25;102173.97;;;-1.12;80.54
41712;BME280;27399;51.516;13.670;2022-12-18T01:38:51;102170.03;;;-1.18;80.58
41712;BME280;27399;51.516;13.670;2022-12-18T01:41:20;102172.78;;;-1.03;80.59
41712;BME280;27399;51.516;13.670;2022-12-18T01:43:50;102171.44;;;-1.10;80.49
41712;BME280;27399;51.516;13.670;2022-12-18T01:46:18;102169.34;;;-1.02;80.44
41712;BME280;27399;51.516;13.670;2022-12-18T01:48:47;102171.38;;;-0.98;80.14
41712;BME280;27399;51.516;13.670;2022-12-18T01:51:14;102176.19;;;-1.04;80.56
41712;BME280;27399;51.516;13.670;2022-12-18T01:53:41;102182.88;;;-0.96;80.18
41712;BME280;27399;51.516;13.670;2022-12-18T01:56:08;102170.88;;;-0.92;79.54
41712;BME280;27399;51.516;13.670;2022-12-18T02:01:14;102181.47;;;-0.77;79.24
41712;BME280;27399;51.516;13.670;2022-12-18T02:03:44;102186.44;;;-1.21;80.30
41712;BME280;27399;51.516;13.670;2022-12-18T02:06:23;102190.09;;;-1.05;79.80
41712;BME280;27399;51.516;13.670;2022-12-18T02:09:02;102183.84;;;-1.21;80.47
41712;BME280;27399;51.516;13.670;2022-12-18T02:11:53;102180.84;;;-1.00;79.92
41712;BME280;27399;51.516;13.670;2022-12-18T02:14:33;102175.44;;;-1.29;79.96
41712;BME280;27399;51.516;13.670;2022-12-18T02:17:08;102181.31;;;-1.19;80.55
41712;BME280;27399;51.516;13.670;2022-12-18T02:28:08;102186.94;;;-1.27;80.85
41712;BME280;27399;51.516;13.670;2022-12-18T02:30:36;102176.56;;;-1.38;80.99
41712;BME280;27399;51.516;13.670;2022-12-18T02:33:04;102187.44;;;-1.32;80.63
41712;BME280;27399;51.516;13.670;2022-12-18T02:35:33;102199.19;;;-1.39;80.74
41712;BME280;27399;51.516;13.670;2022-12-18T02:37:59;102191.13;;;-1.42;80.44
41712;BME280;27399;51.516;13.670;2022-12-18T02:40:27;102191.66;;;-1.34;80.59
41712;BME280;27399;51.516;13.670;2022-12-18T02:42:54;102188.13;;;-1.35;80.41
41712;BME280;27399;51.516;13.670;2022-12-18T02:45:20;102192.22;;;-1.52;80.84
41712;BME280;27399;51.516;13.670;2022-12-18T02:47:48;102189.53;;;-1.65;81.83
41712;BME280;27399;51.516;13.670;2022-12-18T02:50:31;102197.09;;;-1.31;80.74
41712;BME280;27399;51.516;13.670;2022-12-18T02:56:02;102196.84;;;-1.22;80.22
41712;BME280;27399;51.516;13.670;2022-12-18T03:01:23;102201.91;;;-1.37;80.38
41712;BME280;27399;51.516;13.670;2022-12-18T03:04:16;102198.25;;;-1.90;80.95
41712;BME280;27399;51.516;13.670;2022-12-18T03:06:49;102160.81;;;-1.52;80.31
41712;BME280;27399;51.516;13.670;2022-12-18T03:09:20;102192.75;;;-1.69;80.77
41712;BME280;27399;51.516;13.670;2022-12-18T03:11:54;102197.63;;;-1.74;81.62
41712;BME280;27399;51.516;13.670;2022-12-18T03:14:40;102197.47;;;-1.89;81.82
41712;BME280;27399;51.516;13.670;2022-12-18T03:17:14;102193.16;;;-1.63;81.42
41712;BME280;27399;51.516;13.670;2022-12-18T03:19:43;102197.69;;;-1.61;80.86
41712;BME280;27399;51.516;13.670;2022-12-18T03:22:11;102197.16;;;-1.68;81.46
41712;BME280;27399;51.516;13.670;2022-12-18T03:24:39;102205.78;;;-1.58;80.94
41712;BME280;27399;51.516;13.670;2022-12-18T03:27:10;102203.47;;;-1.78;81.59
41712;BME280;27399;51.516;13.670;2022-12-18T03:29:41;102209.34;;;-1.69;81.59
41712;BME280;27399;51.516;13.670;2022-12-18T03:32:11;102210.78;;;-1.61;81.20
41712;BME280;27399;51.516;13.670;2022-12-18T03:34:40;102199.66;;;-1.45;80.91
41712;BME280;27399;51.516;13.670;2022-12-18T03:37:07;102196.25;;;-1.44;80.15
41712;BME280;27399;51.516;13.670;2022-12-18T03:39:34;102209.63;;;-1.27;80.12
41712;BME280;27399;51.516;13.670;2022-12-18T03:42:07;102214.31;;;-1.35;80.47
41712;BME280;27399;51.516;13.670;2022-12-18T03:47:14;102209.25;;;-1.45;80.35
41712;BME280;27399;51.516;13.670;2022-12-18T03:50:05;102208.06;;;-1.37;79.66
41712;BME280;27399;51.516;13.670;2022-12-18T03:52:41;102210.47;;;-1.65;80.29
41712;BME280;27399;51.516;13.670;2022-12-18T03:55:11;102213.03;;;-1.28;80.10
41712;BME280;27399;51.516;13.670;2022-12-18T03:57:38;102219.75;;;-1.82;80.64
41712;BME280;27399;51.516;13.670;2022-12-18T04:00:12;102228.38;;;-1.46;79.99
41712;BME280;27399;51.516;13.670;2022-12-18T04:02:41;102218.38;;;-1.52;79.69
41712;BME280;27399;51.516;13.670;2022-12-18T04:05:09;102240.56;;;-1.84;81.26
41712;BME280;27399;51.516;13.670;2022-12-18T04:07:35;102229.44;;;-1.56;80.31
41712;BME280;27399;51.516;13.670;2022-12-18T04:10:03;102234.50;;;-1.46;80.04
41712;BME280;27399;51.516;13.670;2022-12-18T04:12:31;102251.53;;;-1.39;79.69
41712;BME280;27399;51.516;13.670;2022-12-18T04:14:57;102234.00;;;-1.40;79.45
41712;BME280;27399;51.516;13.670;2022-12-18T04:17:23;102252.78;;;-1.59;80.01
41712;BME280;27399;51.516;13.670;2022-12-18T04:19:49;102254.06;;;-1.41;79.59
41712;BME280;27399;51.516;13.670;2022-12-18T04:22:15;102256.38;;;-1.45;79.73
41712;BME280;27399;51.516;13.670;2022-12-18T04:24:41;102258.19;;;-1.44;79.65
41712;BME280;27399;51.516;13.670;2022-12-18T04:27:07;102261.91;;;-1.78;80.41
41712;BME280;27399;51.516;13.670;2022-12-18T04:29:32;102250.19;;;-1.71;80.71
41712;BME280;27399;51.516;13.670;2022-12-18T04:31:58;102244.63;;;-1.76;80.43
41712;BME280;27399;51.516;13.670;2022-12-18T04:34:24;102243.47;;;-1.67;79.45
41712;BME280;27399;51.516;13.670;2022-12-18T04:36:50;102243.28;;;-1.70;79.71
41712;BME280;27399;51.516;13.670;2022-12-18T04:39:17;102262.38;;;-1.72;79.76
41712;BME280;27399;51.516;13.670;2022-12-18T04:41:43;102261.31;;;-1.99;80.59
41712;BME280;27399;51.516;13.670;2022-12-18T04:44:09;102257.88;;;-1.61;79.93
41712;BME280;27399;51.516;13.670;2022-12-18T04:46:35;102249.81;;;-1.64;79.70
41712;BME280;27399;51.516;13.670;2022-12-18T04:49:00;102248.69;;;-1.67;79.96
41712;BME280;27399;51.516;13.670;2022-12-18T04:51:26;102260.97;;;-1.66;79.98
41712;BME280;27399;51.516;13.670;2022-12-18T04:53:52;102244.47;;;-1.65;79.94
41712;BME280;27399;51.516;13.670;2022-12-18T04:56:18;102239.31;;;-1.89;79.81
41712;BME280;27399;51.516;13.670;2022-12-18T04:58:44;102248.22;;;-2.11;80.91
41712;BME280;27399;51.516;13.670;2022-12-18T05:01:12;102248.50;;;-1.82;80.59
41712;BME280;27399;51.516;13.670;2022-12-18T05:03:38;102245.28;;;-1.66;80.10
41712;BME280;27399;51.516;13.670;2022-12-18T05:06:05;102248.69;;;-1.67;79.82
41712;BME280;27399;51.516;13.670;2022-12-18T05:08:32;102248.03;;;-1.77;80.05
41712;BME280;27399;51.516;13.670;2022-12-18T05:11:01;102236.22;;;-1.72;80.06
41712;BME280;27399;51.516;13.670;2022-12-18T05:13:28;102242.50;;;-1.56;79.93
41712;BME280;27399;51.516;13.670;2022-12-18T05:15:54;102236.06;;;-1.61;79.44
41712;BME280;27399;51.516;13.670;2022-12-18T05:18:20;102251.59;;;-1.51;79.32
41712;BME280;27399;51.516;13.670;2022-12-18T05:20:45;102253.59;;;-1.60;79.34
41712;BME280;27399;51.516;13.670;2022-12-18T05:23:11;102253.25;;;-1.65;79.46
41712;BME280;27399;51.516;13.670;2022-12-18T05:25:37;102251.59;;;-1.51;79.40
41712;BME280;27399;51.516;13.670;2022-12-18T05:28:02;102261.72;;;-1.81;79.46
41712;BME280;27399;51.516;13.670;2022-12-18T05:30:29;102273.91;;;-1.56;79.19
41712;BME280;27399;51.516;13.670;2022-12-18T05:32:55;102279.91;;;-1.70;79.93
41712;BME280;27399;51.516;13.670;2022-12-18T05:35:21;102278.88;;;-1.73;79.63
41712;BME280;27399;51.516;13.670;2022-12-18T05:37:47;102275.78;;;-1.79;79.39
41712;BME280;27399;51.516;13.670;2022-12-18T05:40:12;102287.56;;;-1.97;80.00
41712;BME280;27399;51.516;13.670;2022-12-18T05:42:38;102291.72;;;-1.76;79.57
41712;BME280;27399;51.516;13.670;2022-12-18T05:45:04;102289.84;;;-2.02;80.41
41712;BME280;27399;51.516;13.670;2022-12-18T05:47:31;102272.81;;;-2.33;80.71
41712;BME280;27399;51.516;13.670;2022-12-18T05:49:56;102276.69;;;-2.27;81.39
41712;BME280;27399;51.516;13.670;2022-12-18T05:52:22;102267.94;;;-2.16;81.31
41712;BME280;27399;51.516;13.670;2022-12-18T05:54:48;102272.00;;;-2.08;80.71
41712;BME280;27399;51.516;13.670;2022-12-18T05:57:14;102268.31;;;-1.86;80.21
41712;BME280;27399;51.516;13.670;2022-12-18T05:59:39;102267.28;;;-1.76;79.85
41712;BME280;27399;51.516;13.670;2022-12-18T06:02:05;102274.44;;;-1.74;79.85
41712;BME280;27399;51.516;13.670;2022-12-18T06:04:31;102282.44;;;-1.84;80.07
41712;BME280;27399;51.516;13.670;2022-12-18T06:06:57;102285.19;;;-1.94;80.07
41712;BME280;27399;51.516;13.670;2022-12-18T06:09:23;102279.50;;;-2.12;80.44
41712;BME280;27399;51.516;13.670;2022-12-18T06:11:51;102282.28;;;-1.74;79.64
41712;BME280;27399;51.516;13.670;2022-12-18T06:14:17;102287.56;;;-1.85;79.65
41712;BME280;27399;51.516;13.670;2022-12-18T06:16:43;102300.88;;;-1.94;79.83
41712;BME280;27399;51.516;13.670;2022-12-18T06:19:14;102302.22;;;-1.88;79.82
41712;BME280;27399;51.516;13.670;2022-12-18T06:21:40;102298.72;;;-2.24;80.55
41712;BME280;27399;51.516;13.670;2022-12-18T06:24:06;102295.09;;;-2.14;80.20
41712;BME280;27399;51.516;13.670;2022-12-18T06:26:32;102314.97;;;-2.16;80.75
41712;BME280;27399;51.516;13.670;2022-12-18T06:28:58;102312.81;;;-1.98;80.73
41712;BME280;27399;51.516;13.670;2022-12-18T06:34:45;102305.44;;;-2.04;80.53
41712;BME280;27399;51.516;13.670;2022-12-18T06:37:11;102309.47;;;-1.72;79.37
41712;BME280;27399;51.516;13.670;2022-12-18T06:39:36;102315.66;;;-2.07;80.13
41712;BME280;27399;51.516;13.670;2022-12-18T06:42:03;102318.44;;;-1.80;79.40
41712;BME280;27399;51.516;13.670;2022-12-18T06:44:28;102319.03;;;-1.84;79.25
41712;BME280;27399;51.516;13.670;2022-12-18T06:46:55;102312.59;;;-2.13;80.07
41712;BME280;27399;51.516;13.670;2022-12-18T06:49:20;102320.06;;;-1.82;79.66
41712;BME280;27399;51.516;13.670;2022-12-18T06:51:46;102321.34;;;-1.89;79.89
41712;BME280;27399;51.516;13.670;2022-12-18T06:54:12;102309.75;;;-1.92;79.46
41712;BME280;27399;51.516;13.670;2022-12-18T06:56:38;102314.31;;;-2.01;79.57
41712;BME280;27399;51.516;13.670;2022-12-18T06:59:04;102321.75;;;-1.70;79.37
41712;BME280;27399;51.516;13.670;2022-12-18T07:01:29;102317.94;;;-2.23;80.12
41712;BME280;27399;51.516;13.670;2022-12-18T07:03:56;102321.06;;;-1.68;79.23
41712;BME280;27399;51.516;13.670;2022-12-18T07:06:24;102328.13;;;-1.79;78.99
41712;BME280;27399;51.516;13.670;2022-12-18T07:08:51;102343.03;;;-1.78;79.34
41712;BME280;27399;51.516;13.670;2022-12-18T07:11:18;102345.97;;;-1.61;78.73
41712;BME280;27399;51.516;13.670;2022-12-18T07:13:45;102349.19;;;-1.77;79.20
41712;BME280;27399;51.516;13.670;2022-12-18T07:16:16;102348.63;;;-1.97;79.27
41712;BME280;27399;51.516;13.670;2022-12-18T07:18:42;102341.06;;;-1.68;78.58
41712;BME280;27399;51.516;13.670;2022-12-18T07:21:10;102353.63;;;-2.00;79.54
41712;BME280;27399;51.516;13.670;2022-12-18T07:23:36;102336.22;;;-1.88;79.06
41712;BME280;27399;51.516;13.670;2022-12-18T07:26:07;102343.03;;;-1.78;79.32
41712;BME280;27399;51.516;13.670;2022-12-18T07:28:35;102347.47;;;-1.65;79.05
41712;BME280;27399;51.516;13.670;2022-12-18T07:31:05;102359.50;;;-1.67;78.94
41712;BME280;27399;51.516;13.670;2022-12-18T07:33:33;102367.59;;;-1.76;78.96
41712;BME280;27399;51.516;13.670;2022-12-18T07:36:02;102362.69;;;-1.71;78.76
41712;BME280;27399;51.516;13.670;2022-12-18T07:38:29;102367.09;;;-1.58;78.70
41712;BME280;27399;51.516;13.670;2022-12-18T07:41:00;102365.97;;;-1.62;78.72
41712;BME280;27399;51.516;13.670;2022-12-18T07:43:26;102365.31;;;-1.71;78.53
41712;BME280;27399;51.516;13.670;2022-12-18T07:45:51;102368.16;;;-1.80;78.39
41712;BME280;27399;51.516;13.670;2022-12-18T07:48:17;102373.88;;;-1.85;78.08
41712;BME280;27399;51.516;13.670;2022-12-18T07:50:42;102371.81;;;-1.90;78.23
41712;BME280;27399;51.516;13.670;2022-12-18T07:53:08;102369.09;;;-1.79;78.01
41712;BME280;27399;51.516;13.670;2022-12-18T07:55:34;102370.44;;;-1.84;78.34
41712;BME280;27399;51.516;13.670;2022-12-18T07:58:03;102370.44;;;-1.84;78.08
41712;BME280;27399;51.516;13.670;2022-12-18T08:00:30;102355.69;;;-1.96;78.61
41712;BME280;27399;51.516;13.670;2022-12-18T08:02:56;102352.28;;;-2.07;78.90
41712;BME280;27399;51.516;13.670;2022-12-18T08:05:22;102338.28;;;-2.31;79.46
41712;BME280;27399;51.516;13.670;2022-12-18T08:07:48;102333.50;;;-2.37;79.43
41712;BME280;27399;51.516;13.670;2022-12-18T08:10:14;102340.09;;;-2.18;79.07
41712;BME280;27399;51.516;13.670;2022-12-18T08:12:40;102342.97;;;-2.15;78.97
41712;BME280;27399;51.516;13.670;2022-12-18T08:15:06;102350.44;;;-2.08;78.70
41712;BME280;27399;51.516;13.670;2022-12-18T08:17:32;102348.97;;;-1.92;78.72
41712;BME280;27399;51.516;13.670;2022-12-18T08:19:57;102363.63;;;-2.18;78.83
41712;BME280;27399;51.516;13.670;2022-12-18T08:22:23;102372.06;;;-2.10;78.33
41712;BME280;27399;51.516;13.670;2022-12-18T08:24:49;102370.69;;;-1.93;78.44
41712;BME280;27399;51.516;13.670;2022-12-18T08:27:15;102382.47;;;-2.46;79.06
41712;BME280;27399;51.516;13.670;2022-12-18T08:29:40;102366.03;;;-2.09;77.84
41712;BME280;27399;51.516;13.670;2022-12-18T08:32:06;102368.31;;;-2.14;77.63
41712;BME280;27399;51.516;13.670;2022-12-18T08:34:32;102366.34;;;-1.93;77.63
41712;BME280;27399;51.516;13.670;2022-12-18T08:36:57;102373.06;;;-2.20;77.51
41712;BME280;27399;51.516;13.670;2022-12-18T08:39:23;102376.16;;;-2.14;77.32
41712;BME280;27399;51.516;13.670;2022-12-18T08:41:49;102361.72;;;-2.21;77.52
41712;BME280;27399;51.516;13.670;2022-12-18T08:44:33;102377.50;;;-1.95;76.56
41712;BME280;27399;51.516;13.670;2022-12-18T08:47:05;102369.44;;;-1.87;76.21
41712;BME280;27399;51.516;13.670;2022-12-18T08:49:32;102368.66;;;-2.09;76.55
41712;BME280;27399;51.516;13.670;2022-12-18T08:51:58;102364.88;;;-2.25;76.52
41712;BME280;27399;51.516;13.670;2022-12-18T08:54:24;102367.28;;;-1.92;76.43
41712;BME280;27399;51.516;13.670;2022-12-18T08:56:50;102366.03;;;-1.97;76.81
41712;BME280;27399;51.516;13.670;2022-12-18T08:59:16;102365.78;;;-1.89;76.39
41712;BME280;27399;51.516;13.670;2022-12-18T09:01:42;102367.81;;;-2.20;76.83
41712;BME280;27399;51.516;13.670;2022-12-18T09:04:09;102363.38;;;-1.74;76.62
41712;BME280;27399;51.516;13.670;2022-12-18T09:06:35;102364.75;;;-1.79;76.16
41712;BME280;27399;51.516;13.670;2022-12-18T09:09:02;102358.19;;;-1.97;76.50
41712;BME280;27399;51.516;13.670;2022-12-18T09:11:28;102368.38;;;-1.77;76.58
41712;BME280;27399;51.516;13.670;2022-12-18T09:13:55;102376.84;;;-2.05;77.06
41712;BME280;27399;51.516;13.670;2022-12-18T09:16:21;102381.81;;;-1.60;76.56
41712;BME280;27399;51.516;13.670;2022-12-18T09:18:47;102387.84;;;-1.85;76.86
41712;BME280;27399;51.516;13.670;2022-12-18T09:21:22;102394.16;;;-1.46;76.24
41712;BME280;27399;51.516;13.670;2022-12-18T09:23:51;102396.13;;;-1.43;76.14
41712;BME280;27399;51.516;13.670;2022-12-18T09:26:17;102400.53;;;-1.30;75.94
41712;BME280;27399;51.516;13.670;2022-12-18T09:28:43;102404.28;;;-1.01;75.68
41712;BME280;27399;51.516;13.670;2022-12-18T09:31:14;102407.38;;;-1.07;74.88
41712;BME280;27399;51.516;13.670;2022-12-18T09:33:40;102417.31;;;-1.15;75.04
41712;BME280;27399;51.516;13.670;2022-12-18T09:36:09;102427.16;;;-0.87;75.14
41712;BME280;27399;51.516;13.670;2022-12-18T09:38:35;102426.03;;;-1.02;74.86
41712;BME280;27399;51.516;13.670;2022-12-18T09:41:39;102422.91;;;-1.22;75.62
41712;BME280;27399;51.516;13.670;2022-12-18T09:47:13;102410.72;;;-0.84;74.82
41712;BME280;27399;51.516;13.670;2022-12-18T09:49:50;102395.50;;;-0.51;74.18
41712;BME280;27399;51.516;13.670;2022-12-18T09:52:29;102397.56;;;-0.72;73.86
41712;BME280;27399;51.516;13.670;2022-12-18T10:00:53;102373.69;;;-0.64;73.82
41712;BME280;27399;51.516;13.670;2022-12-18T10:03:20;102362.19;;;-0.13;72.97
41712;BME280;27399;51.516;13.670;2022-12-18T10:08:30;102352.47;;;-0.41;73.66
41712;BME280;27399;51.516;13.670;2022-12-18T10:11:43;102343.22;;;-0.36;73.06
41712;BME280;27399;51.516;13.670;2022-12-18T10:19:48;102338.25;;;-0.32;73.74
41712;BME280;27399;51.516;13.670;2022-12-18T10:25:05;102324.47;;;-0.02;72.51
41712;BME280;27399;51.516;13.670;2022-12-18T10:27:35;102321.84;;;-0.02;72.68
41712;BME280;27399;51.516;13.670;2022-12-18T10:30:12;102324.97;;;-0.08;72.64
41712;BME280;27399;51.516;13.670;2022-12-18T10:32:38;102319.19;;;0.11;72.98
41712;BME280;27399;51.516;13.670;2022-12-18T10:35:04;102331.44;;;-0.16;73.10
41712;BME280;27399;51.516;13.670;2022-12-18T10:37:30;102320.31;;;-0.39;73.27
41712;BME280;27399;51.516;13.670;2022-12-18T10:40:12;102314.94;;;0.13;72.89
41712;BME280;27399;51.516;13.670;2022-12-18T10:42:38;102312.66;;;0.05;73.32
41712;BME280;27399;51.516;13.670;2022-12-18T10:45:14;102305.47;;;0.02;73.43
41712;BME280;27399;51.516;13.670;2022-12-18T10:47:45;102310.31;;;-0.04;73.23
41712;BME280;27399;51.516;13.670;2022-12-18T10:50:30;102307.00;;;-0.28;73.70
41712;BME280;27399;51.516;13.670;2022-12-18T10:52:59;102303.56;;;-0.01;73.44
41712;BME280;27399;51.516;13.670;2022-12-18T10:55:37;102306.25;;;0.28;72.73
41712;BME280;27399;51.516;13.670;2022-12-18T10:58:28;102293.28;;;0.03;73.24
41712;BME280;27399;51.516;13.670;2022-12-18T11:01:14;102289.56;;;-0.14;73.64
41712;BME280;27399;51.516;13.670;2022-12-18T11:03:45;102262.50;;;-0.40;73.19
41712;BME280;27399;51.516;13.670;2022-12-18T11:06:15;102282.84;;;0.18;73.16
41712;BME280;27399;51.516;13.670;2022-12-18T11:08:42;102280.22;;;0.18;72.63
41712;BME280;27399;51.516;13.670;2022-12-18T11:11:21;102271.47;;;0.04;72.80
41712;BME280;27399;51.516;13.670;2022-12-18T11:16:21;102260.38;;;0.36;72.55
41712;BME280;27399;51.516;13.670;2022-12-18T11:18:47;102270.81;;;0.21;72.55
41712;BME280;27399;51.516;13.670;2022-12-18T11:21:13;102271.34;;;0.15;72.51
41712;BME280;27399;51.516;13.670;2022-12-18T11:23:53;102267.81;;;0.43;72.28
41712;BME280;27399;51.516;13.670;2022-12-18T11:26:19;102273.38;;;-0.07;72.55
41712;BME280;27399;51.516;13.670;2022-12-18T11:38:53;102281.06;;;0.45;71.46
41712;BME280;27399;51.516;13.670;2022-12-18T11:41:29;102283.25;;;0.52;71.33
41712;BME280;27399;51.516;13.670;2022-12-18T11:44:39;102270.66;;;0.46;70.82
41712;BME280;27399;51.516;13.670;2022-12-18T11:49:41;102261.44;;;1.12;69.77
41712;BME280;27399;51.516;13.670;2022-12-18T11:52:16;102262.47;;;1.14;69.70
41712;BME280;27399;51.516;13.670;2022-12-18T11:54:44;102261.00;;;1.19;68.93
41712;BME280;27399;51.516;13.670;2022-12-18T12:00:12;102261.78;;;0.88;69.96
41712;BME280;27399;51.516;13.670;2022-12-18T12:11:02;102277.53;;;0.73;69.87
41712;BME280;27399;51.516;13.670;2022-12-18T12:16:36;102293.19;;;0.71;69.65
41712;BME280;27399;51.516;13.670;2022-12-18T12:22:07;102287.06;;;1.01;69.52
41712;BME280;27399;51.516;13.670;2022-12-18T12:27:50;102294.81;;;1.28;69.17
41712;BME280;27399;51.516;13.670;2022-12-18T12:30:30;102292.28;;;1.29;68.86
41712;BME280;27399;51.516;13.670;2022-12-18T12:33:27;102287.75;;;1.42;68.99
41712;BME280;27399;51.516;13.670;2022-12-18T12:38:51;102299.72;;;1.36;67.53
41712;BME280;27399;51.516;13.670;2022-12-18T12:41:23;102299.50;;;1.78;66.87
41712;BME280;27399;51.516;13.670;2022-12-18T12:44:14;102296.41;;;1.70;66.44
41712;BME280;27399;51.516;13.670;2022-12-18T12:46:41;102298.34;;;1.28;69.16
41712;BME280;27399;51.516;13.670;2022-12-18T12:49:17;102258.56;;;1.37;68.58
41712;BME280;27399;51.516;13.670;2022-12-18T12:51:46;102275.56;;;1.74;68.79
41712;BME280;27399;51.516;13.670;2022-12-18T12:54:23;102264.72;;;1.37;68.72
41712;BME280;27399;51.516;13.670;2022-12-18T12:57:06;102269.25;;;0.95;69.86
41712;BME280;27399;51.516;13.670;2022-12-18T13:04:57;102248.50;;;1.15;69.92
41712;BME280;27399;51.516;13.670;2022-12-18T13:07:34;102257.34;;;1.17;69.81
41712;BME280;27399;51.516;13.670;2022-12-18T13:10:22;102258.09;;;1.14;69.55
41712;BME280;27399;51.516;13.670;2022-12-18T13:13:12;102258.06;;;0.84;69.93
41712;BME280;27399;51.516;13.670;2022-12-18T13:16:06;102259.63;;;1.11;69.72
41712;BME280;27399;51.516;13.670;2022-12-18T13:18:32;102269.63;;;1.16;69.56
41712;BME280;27399;51.516;13.670;2022-12-18T13:23:28;102270.31;;;0.84;69.43
41712;BME280;27399;51.516;13.670;2022-12-18T13:34:27;102265.44;;;0.61;70.09
41712;BME280;27399;51.516;13.670;2022-12-18T13:36:57;102261.97;;;0.48;70.00
41712;BME280;27399;51.516;13.670;2022-12-18T13:39:41;102273.94;;;0.29;70.40
41712;BME280;27399;51.516;13.670;2022-12-18T13:44:37;102277.44;;;0.71;70.78
41712;BME280;27399;51.516;13.670;2022-12-18T13:47:26;102270.22;;;0.54;70.88
41712;BME280;27399;51.516;13.670;2022-12-18T13:49:53;102276.66;;;0.59;70.62
41712;BME280;27399;51.516;13.670;2022-12-18T13:52:28;102272.03;;;0.55;71.08
41712;BME280;27399;51.516;13.670;2022-12-18T13:55:00;102268.09;;;0.48;70.90
41712;BME280;27399;51.516;13.670;2022-12-18T13:57:29;102275.75;;;0.30;71.13
41712;BME280;27399;51.516;13.670;2022-12-18T13:59:56;102273.34;;;0.48;70.94
41712;BME280;27399;51.516;13.670;2022-12-18T14:02:24;102272.69;;;0.37;70.95
41712;BME280;27399;51.516;13.670;2022-12-18T14:04:51;102275.28;;;0.22;71.95
41712;BME280;27399;51.516;13.670;2022-12-18T14:07:22;102276.78;;;0.19;71.50
41712;BME280;27399;51.516;13.670;2022-12-18T14:09:56;102268.81;;;0.17;71.79
41712;BME280;27399;51.516;13.670;2022-12-18T14:12:28;102263.81;;;-0.07;71.36
41712;BME280;27399;51.516;13.670;2022-12-18T14:17:54;102272.72;;;-0.32;71.51
41712;BME280;27399;51.516;13.670;2022-12-18T14:20:21;102276.31;;;-0.70;71.91
41712;BME280;27399;51.516;13.670;2022-12-18T14:22:48;102270.06;;;-0.45;71.77
41712;BME280;27399;51.516;13.670;2022-12-18T14:25:20;102270.97;;;-0.71;72.01
41712;BME280;27399;51.516;13.670;2022-12-18T14:27:51;102258.28;;;-0.52;72.21
41712;BME280;27399;51.516;13.670;2022-12-18T14:35:36;102231.03;;;-0.81;72.49
41712;BME280;27399;51.516;13.670;2022-12-18T14:38:21;102230.44;;;-0.76;72.78
41712;BME280;27399;51.516;13.670;2022-12-18T14:40:55;102227.41;;;-0.96;73.04
41712;BME280;27399;51.516;13.670;2022-12-18T14:43:21;102232.22;;;-1.02;73.58